createdAt,value
2022-10-22T00:01:38.886Z,3.13
2022-10-22T00:04:07.712Z,3.70
2022-10-22T00:06:35.653Z,3.20
2022-10-22T00:09:03.710Z,3.10
2022-10-22T00:11:32.284Z,3.93
2022-10-22T00:14:00.106Z,3.38
2022-10-22T00:16:28.083Z,3.60
2022-10-22T00:18:57.418Z,3.50
2022-10-22T00:21:25.707Z,3.38
2022-10-22T00:23:53.685Z,2.75
2022-10-22T00:26:21.587Z,3.25
2022-10-22T00:28:50.077Z,2.97
2022-10-22T00:31:19.180Z,3.67
2022-10-22T00:33:48.017Z,4.47
2022-10-22T00:36:17.855Z,3.83
2022-10-22T00:38:45.928Z,3.63
2022-10-22T00:41:14.669Z,3.63
2022-10-22T00:43:57.780Z,3.83
2022-10-22T00:46:25.826Z,3.83
2022-10-22T00:48:54.134Z,3.97
2022-10-22T00:51:26.729Z,3.60
2022-10-22T00:53:58.309Z,3.42
2022-10-22T00:56:26.379Z,3.90
2022-10-22T00:58:59.273Z,3.50
2022-10-22T01:01:29.836Z,7.03
2022-10-22T01:03:58.300Z,5.83
2022-10-22T01:06:30.054Z,5.87
2022-10-22T01:09:10.451Z,6.93
2022-10-22T01:11:51.048Z,6.00
2022-10-22T01:14:26.738Z,3.65
2022-10-22T01:17:01.960Z,4.13
2022-10-22T01:19:39.665Z,3.90
2022-10-22T01:22:17.017Z,3.47
2022-10-22T01:24:57.483Z,3.50
2022-10-22T01:27:41.280Z,3.33
2022-10-22T01:30:14.106Z,4.05
2022-10-22T01:32:47.132Z,5.57
2022-10-22T01:35:19.132Z,4.78
2022-10-22T01:37:50.021Z,4.30
2022-10-22T01:40:19.180Z,4.57
2022-10-22T01:42:56.573Z,4.20
2022-10-22T01:45:26.164Z,5.68
2022-10-22T01:48:04.436Z,4.70
2022-10-22T01:51:08.146Z,4.57
2022-10-22T01:56:25.753Z,4.85
2022-10-22T01:59:01.941Z,4.50
2022-10-22T02:01:36.632Z,5.10
2022-10-22T02:04:11.270Z,4.50
2022-10-22T02:06:42.678Z,4.82
2022-10-22T02:09:15.336Z,4.82
2022-10-22T02:11:45.218Z,4.38
2022-10-22T02:14:14.777Z,4.88
2022-10-22T02:16:46.435Z,5.13
2022-10-22T02:19:19.630Z,5.28
2022-10-22T02:21:47.701Z,5.57
2022-10-22T02:24:15.780Z,4.45
2022-10-22T02:26:50.034Z,5.80
2022-10-22T02:29:23.456Z,6.18
2022-10-22T02:31:55.289Z,5.03
2022-10-22T02:34:28.238Z,4.35
2022-10-22T02:36:57.608Z,4.78
2022-10-22T02:39:26.840Z,4.30
2022-10-22T02:41:55.652Z,4.63
2022-10-22T02:44:23.740Z,5.18
2022-10-22T02:46:53.115Z,4.95
2022-10-22T02:49:20.957Z,4.32
2022-10-22T02:51:48.940Z,4.30
2022-10-22T02:54:17.235Z,4.63
2022-10-22T02:56:45.234Z,4.45
2022-10-22T02:59:13.128Z,5.07
2022-10-22T03:01:41.008Z,4.53
2022-10-22T03:04:10.291Z,4.43
2022-10-22T03:06:38.144Z,4.47
2022-10-22T03:09:06.108Z,5.63
2022-10-22T03:11:33.921Z,4.28
2022-10-22T03:14:01.757Z,5.35
2022-10-22T03:16:29.542Z,5.30
2022-10-22T03:18:57.366Z,5.75
2022-10-22T03:21:34.229Z,5.80
2022-10-22T03:24:05.609Z,4.90
2022-10-22T03:26:34.640Z,6.13
2022-10-22T03:29:02.972Z,6.60
2022-10-22T03:31:30.751Z,6.35
2022-10-22T03:33:58.547Z,7.03
2022-10-22T03:36:28.152Z,6.88
2022-10-22T03:38:56.305Z,7.65
2022-10-22T03:41:24.371Z,7.80
2022-10-22T03:43:53.215Z,7.63
2022-10-22T03:46:21.205Z,8.30
2022-10-22T03:48:49.126Z,8.50
2022-10-22T03:51:17.056Z,7.85
2022-10-22T03:53:46.320Z,7.97
2022-10-22T03:56:15.218Z,8.32
2022-10-22T03:58:43.320Z,9.02
2022-10-22T04:01:14.365Z,8.07
2022-10-22T04:03:42.375Z,8.20
2022-10-22T04:06:12.154Z,7.90
2022-10-22T04:08:41.253Z,8.00
2022-10-22T04:11:11.255Z,7.90
2022-10-22T04:13:39.443Z,6.50
2022-10-22T04:16:11.715Z,7.00
2022-10-22T04:18:41.050Z,6.68
2022-10-22T04:21:10.834Z,7.38
2022-10-22T04:23:39.167Z,6.00
2022-10-22T04:26:09.933Z,6.60
2022-10-22T04:28:37.817Z,8.15
2022-10-22T04:31:09.986Z,7.40
2022-10-22T04:33:38.037Z,8.13
2022-10-22T04:36:10.244Z,8.45
2022-10-22T04:38:38.469Z,8.55
2022-10-22T04:41:12.114Z,9.63
2022-10-22T04:43:40.358Z,9.18
2022-10-22T04:46:09.302Z,9.70
2022-10-22T04:48:37.624Z,9.57
2022-10-22T04:51:06.638Z,10.25
2022-10-22T04:53:35.659Z,9.15
2022-10-22T04:56:16.190Z,10.48
2022-10-22T04:58:44.882Z,9.68
2022-10-22T05:01:15.059Z,10.32
2022-10-22T05:03:44.922Z,10.77
2022-10-22T05:06:14.261Z,9.80
2022-10-22T05:08:43.510Z,10.35
2022-10-22T05:11:14.021Z,9.65
2022-10-22T05:13:41.957Z,7.70
2022-10-22T05:16:10.649Z,7.47
2022-10-22T05:18:39.902Z,7.95
2022-10-22T05:21:10.508Z,7.70
2022-10-22T05:23:38.657Z,7.47
2022-10-22T05:26:08.813Z,8.00
2022-10-22T05:28:38.490Z,27.60
2022-10-22T05:31:07.679Z,7.80
2022-10-22T05:33:35.813Z,7.68
2022-10-22T05:36:05.887Z,6.68
2022-10-22T05:38:34.168Z,7.25
2022-10-22T05:41:03.350Z,6.33
2022-10-22T05:43:31.291Z,5.40
2022-10-22T05:46:04.866Z,6.00
2022-10-22T05:51:08.186Z,7.00
2022-10-22T05:53:38.477Z,8.83
2022-10-22T05:56:08.675Z,9.20
2022-10-22T05:58:38.027Z,11.95
2022-10-22T06:01:09.441Z,9.40
2022-10-22T06:03:37.216Z,10.50
2022-10-22T06:06:13.814Z,8.30
2022-10-22T06:08:41.774Z,8.93
2022-10-22T06:11:09.800Z,9.53
2022-10-22T06:13:38.501Z,8.68
2022-10-22T06:16:08.559Z,7.50
2022-10-22T06:18:36.635Z,7.90
2022-10-22T06:21:08.558Z,7.30
2022-10-22T06:23:36.942Z,19.13
2022-10-22T06:26:05.284Z,8.65
2022-10-22T06:28:33.976Z,13.82
2022-10-22T06:31:02.896Z,7.57
2022-10-22T06:33:34.036Z,8.02
2022-10-22T06:36:07.682Z,8.20
2022-10-22T06:38:36.104Z,8.23
2022-10-22T06:41:05.508Z,7.93
2022-10-22T06:43:33.364Z,7.15
2022-10-22T06:46:01.961Z,7.10
2022-10-22T06:48:30.106Z,7.32
2022-10-22T06:51:02.650Z,7.10
2022-10-22T06:53:30.679Z,5.68
2022-10-22T06:55:58.919Z,5.68
2022-10-22T06:58:26.730Z,6.03
2022-10-22T07:01:02.268Z,5.80
2022-10-22T07:03:30.256Z,5.07
2022-10-22T07:06:02.039Z,4.80
2022-10-22T07:08:30.852Z,5.88
2022-10-22T07:11:07.291Z,5.10
2022-10-22T07:13:35.596Z,4.82
2022-10-22T07:16:03.496Z,5.45
2022-10-22T07:18:31.444Z,4.95
2022-10-22T07:21:00.787Z,5.00
2022-10-22T07:23:29.440Z,4.70
2022-10-22T07:25:57.658Z,4.93
2022-10-22T07:28:25.979Z,5.15
2022-10-22T07:30:53.939Z,5.03
2022-10-22T07:33:22.085Z,5.13
2022-10-22T07:35:49.893Z,9.43
2022-10-22T07:38:19.082Z,8.07
2022-10-22T07:40:46.884Z,6.22
2022-10-22T07:43:14.730Z,5.47
2022-10-22T07:45:42.483Z,5.97
2022-10-22T07:48:10.316Z,5.30
2022-10-22T07:50:38.685Z,3.97
2022-10-22T07:53:06.834Z,4.03
2022-10-22T07:55:36.459Z,3.75
2022-10-22T07:58:10.297Z,3.50
2022-10-22T08:00:38.269Z,2.92
2022-10-22T08:03:06.078Z,2.65
2022-10-22T08:05:33.863Z,2.47
2022-10-22T08:08:01.646Z,2.65
2022-10-22T08:10:29.545Z,3.17
2022-10-22T08:12:59.269Z,2.08
2022-10-22T08:15:27.211Z,2.58
2022-10-22T08:17:55.020Z,3.00
2022-10-22T08:20:23.128Z,2.80
2022-10-22T08:22:51.016Z,2.50
2022-10-22T08:25:19.625Z,2.35
2022-10-22T08:27:47.568Z,2.35
2022-10-22T08:30:17.885Z,2.25
2022-10-22T08:32:45.881Z,2.10
2022-10-22T08:35:16.789Z,2.05
2022-10-22T08:37:45.569Z,2.05
2022-10-22T08:40:22.609Z,1.45
2022-10-22T08:43:05.674Z,1.85
2022-10-22T08:45:42.017Z,2.00
2022-10-22T08:48:26.015Z,1.67
2022-10-22T08:50:57.409Z,1.45
2022-10-22T08:53:35.522Z,2.20
2022-10-22T08:56:03.405Z,1.75
2022-10-22T08:58:37.141Z,2.10
2022-10-22T09:01:11.529Z,1.77
2022-10-22T09:03:50.198Z,1.42
2022-10-22T09:06:21.925Z,2.00
2022-10-22T09:08:51.264Z,1.90
2022-10-22T09:11:25.791Z,1.98
2022-10-22T09:13:55.227Z,1.50
2022-10-22T09:16:31.709Z,1.60
2022-10-22T09:19:08.927Z,1.95
2022-10-22T09:21:44.488Z,1.80
2022-10-22T09:24:14.813Z,1.70
2022-10-22T09:26:43.353Z,1.83
2022-10-22T09:29:19.137Z,1.55
2022-10-22T09:31:48.365Z,1.70
2022-10-22T09:34:17.098Z,1.83
2022-10-22T09:36:45.124Z,1.85
2022-10-22T09:39:25.428Z,1.98
2022-10-22T09:41:53.432Z,1.77
2022-10-22T09:44:21.907Z,1.98
2022-10-22T09:46:51.530Z,2.08
2022-10-22T09:49:22.511Z,2.05
2022-10-22T09:51:54.200Z,2.00
2022-10-22T09:54:24.583Z,1.52
2022-10-22T09:56:56.333Z,1.80
2022-10-22T09:59:38.915Z,2.20
2022-10-22T10:02:20.361Z,2.08
2022-10-22T10:04:56.636Z,2.03
2022-10-22T10:07:26.318Z,2.17
2022-10-22T10:09:55.382Z,1.90
2022-10-22T10:12:34.885Z,1.90
2022-10-22T10:15:14.688Z,1.50
2022-10-22T10:17:51.637Z,1.88
2022-10-22T10:20:30.750Z,2.08
2022-10-22T10:23:04.718Z,1.73
2022-10-22T10:25:53.376Z,1.77
2022-10-22T10:28:33.509Z,2.08
2022-10-22T10:31:16.345Z,1.83
2022-10-22T10:33:50.347Z,1.60
2022-10-22T10:36:26.183Z,1.52
2022-10-22T10:39:00.902Z,1.65
2022-10-22T10:41:42.409Z,1.70
2022-10-22T10:44:23.661Z,1.40
2022-10-22T10:47:00.532Z,1.90
2022-10-22T10:49:34.025Z,1.70
2022-10-22T10:52:15.243Z,1.60
2022-10-22T10:54:52.494Z,1.83
2022-10-22T10:57:30.029Z,2.00
2022-10-22T11:00:05.980Z,1.75
2022-10-22T11:03:04.943Z,1.80
2022-10-22T11:05:40.315Z,1.63
2022-10-22T11:08:14.492Z,2.05
2022-10-22T11:10:47.431Z,1.67
2022-10-22T11:13:22.509Z,1.63
2022-10-22T11:15:56.415Z,1.60
2022-10-22T11:18:31.506Z,1.52
2022-10-22T11:21:12.789Z,1.70
2022-10-22T11:23:46.126Z,1.55
2022-10-22T11:26:20.895Z,1.55
2022-10-22T11:28:54.557Z,1.85
2022-10-22T11:31:25.318Z,1.83
2022-10-22T11:34:28.573Z,1.70
2022-10-22T11:36:56.693Z,1.70
2022-10-22T11:39:36.369Z,1.90
2022-10-22T11:42:08.281Z,1.85
2022-10-22T11:44:54.099Z,1.85
2022-10-22T11:47:26.769Z,1.75
2022-10-22T11:50:00.827Z,1.77
2022-10-22T11:52:41.844Z,1.73
2022-10-22T11:55:32.855Z,1.60
2022-10-22T11:58:02.269Z,2.00
2022-10-22T12:00:36.700Z,1.30
2022-10-22T12:03:16.750Z,2.03
2022-10-22T12:05:46.364Z,1.50
2022-10-22T12:08:23.639Z,1.80
2022-10-22T12:11:18.507Z,1.60
2022-10-22T12:14:14.388Z,2.30
2022-10-22T12:16:56.694Z,1.38
2022-10-22T12:19:29.071Z,1.40
2022-10-22T12:22:01.059Z,1.85
2022-10-22T12:24:35.693Z,1.70
2022-10-22T12:27:04.511Z,1.50
2022-10-22T12:29:33.917Z,1.70
2022-10-22T12:32:05.249Z,1.70
2022-10-22T12:34:33.420Z,1.65
2022-10-22T12:37:06.303Z,1.80
2022-10-22T12:39:35.668Z,1.83
2022-10-22T12:42:06.487Z,2.20
2022-10-22T12:44:34.563Z,2.15
2022-10-22T12:47:02.446Z,1.83
2022-10-22T12:49:36.324Z,1.70
2022-10-22T12:52:09.850Z,1.65
2022-10-22T12:54:41.979Z,1.60
2022-10-22T12:57:13.801Z,2.13
2022-10-22T12:59:48.747Z,1.88
2022-10-22T13:02:22.378Z,2.97
2022-10-22T13:05:18.593Z,2.05
2022-10-22T13:07:50.691Z,1.92
2022-10-22T13:10:25.310Z,2.00
2022-10-22T13:12:56.700Z,1.88
2022-10-22T13:15:36.587Z,2.22
2022-10-22T13:18:07.650Z,1.98
2022-10-22T13:20:37.426Z,1.85
2022-10-22T13:23:06.150Z,2.10
2022-10-22T13:25:38.505Z,1.50
2022-10-22T13:28:20.133Z,1.60
2022-10-22T13:30:54.160Z,1.60
2022-10-22T13:33:26.099Z,1.83
2022-10-22T13:35:57.263Z,1.67
2022-10-22T13:38:27.098Z,1.52
2022-10-22T13:41:03.078Z,1.42
2022-10-22T13:43:30.876Z,1.30
2022-10-22T13:46:03.368Z,1.60
2022-10-22T13:48:31.723Z,1.52
2022-10-22T13:50:59.550Z,1.60
2022-10-22T13:53:29.543Z,1.55
2022-10-22T13:55:59.286Z,1.40
2022-10-22T13:58:27.351Z,1.52
2022-10-22T14:00:58.314Z,1.60
2022-10-22T14:03:29.060Z,1.48
2022-10-22T14:05:57.304Z,1.60
2022-10-22T14:08:27.275Z,1.50
2022-10-22T14:10:55.406Z,1.52
2022-10-22T14:13:24.732Z,1.70
2022-10-22T14:15:53.565Z,1.70
2022-10-22T14:18:26.630Z,1.67
2022-10-22T14:20:56.813Z,1.60
2022-10-22T14:23:27.873Z,1.60
2022-10-22T14:25:56.340Z,1.60
2022-10-22T14:28:25.623Z,1.40
2022-10-22T14:30:56.045Z,1.52
2022-10-22T14:33:28.842Z,1.65
2022-10-22T14:36:00.178Z,1.77
2022-10-22T14:38:28.371Z,1.50
2022-10-22T14:40:56.488Z,1.63
2022-10-22T14:43:27.877Z,1.75
2022-10-22T14:45:56.471Z,1.42
2022-10-22T14:48:24.390Z,1.70
2022-10-22T14:50:52.450Z,1.50
2022-10-22T14:53:20.555Z,1.50
2022-10-22T14:55:51.383Z,1.50
2022-10-22T14:58:19.401Z,1.80
2022-10-22T15:00:48.594Z,4.85
2022-10-22T15:03:16.540Z,2.35
2022-10-22T15:05:45.333Z,2.00
2022-10-22T15:08:14.612Z,2.03
2022-10-22T15:10:42.553Z,1.90
2022-10-22T15:13:10.612Z,1.85
2022-10-22T15:15:41.170Z,1.95
2022-10-22T15:18:10.248Z,2.17
2022-10-22T15:20:37.957Z,1.80
2022-10-22T15:23:06.197Z,1.88
2022-10-22T15:25:34.025Z,1.85
2022-10-22T15:28:09.184Z,2.20
2022-10-22T15:30:37.747Z,2.45
2022-10-22T15:33:05.645Z,1.70
2022-10-22T15:35:35.050Z,2.22
2022-10-22T15:38:03.011Z,2.00
2022-10-22T15:40:30.916Z,2.17
2022-10-22T15:42:59.059Z,2.13
2022-10-22T15:45:27.001Z,2.40
2022-10-22T15:47:54.895Z,2.30
2022-10-22T15:50:22.785Z,1.88
2022-10-22T15:52:52.326Z,2.33
2022-10-22T15:55:20.559Z,2.28
2022-10-22T15:57:54.674Z,1.98
2022-10-22T16:00:25.013Z,2.03
2022-10-22T16:02:55.174Z,2.67
2022-10-22T16:05:23.082Z,2.10
2022-10-22T16:07:55.622Z,2.45
2022-10-22T16:10:24.391Z,2.40
2022-10-22T16:12:54.521Z,2.75
2022-10-22T16:15:22.406Z,2.78
2022-10-22T16:17:54.842Z,3.50
2022-10-22T16:20:22.887Z,3.55
2022-10-22T16:22:52.446Z,3.33
2022-10-22T16:25:20.402Z,2.60
2022-10-22T16:27:50.567Z,2.72
2022-10-22T16:30:18.543Z,2.72
2022-10-22T16:32:46.534Z,2.40
2022-10-22T16:35:14.363Z,2.58
2022-10-22T16:37:42.590Z,3.33
2022-10-22T16:40:13.718Z,2.40
2022-10-22T16:42:44.330Z,2.15
2022-10-22T16:45:12.618Z,2.75
2022-10-22T16:47:43.021Z,2.50
2022-10-22T16:50:11.383Z,2.20
2022-10-22T16:52:39.521Z,2.20
2022-10-22T16:55:08.170Z,2.50
2022-10-22T16:57:37.615Z,2.13
2022-10-22T17:00:06.580Z,2.47
2022-10-22T17:02:35.297Z,2.10
2022-10-22T17:05:03.418Z,2.88
2022-10-22T17:07:31.417Z,2.00
2022-10-22T17:09:59.337Z,3.05
2022-10-22T17:12:27.177Z,2.58
2022-10-22T17:14:56.485Z,2.28
2022-10-22T17:17:24.312Z,2.47
2022-10-22T17:19:52.148Z,2.80
2022-10-22T17:22:20.071Z,2.75
2022-10-22T17:24:47.899Z,2.35
2022-10-22T17:27:15.828Z,2.60
2022-10-22T17:29:43.640Z,2.50
2022-10-22T17:32:12.793Z,2.58
2022-10-22T17:34:40.646Z,2.30
2022-10-22T17:37:08.436Z,2.47
2022-10-22T17:39:36.454Z,2.65
2022-10-22T17:42:05.074Z,1.92
2022-10-22T17:44:32.996Z,2.20
2022-10-22T17:47:01.689Z,3.08
2022-10-22T17:49:31.035Z,2.47
2022-10-22T17:54:31.996Z,2.83
2022-10-22T17:56:59.983Z,2.40
2022-10-22T17:59:28.573Z,2.72
2022-10-22T18:01:59.434Z,2.78
2022-10-22T18:04:28.420Z,3.13
2022-10-22T18:06:58.164Z,2.78
2022-10-22T18:09:27.341Z,2.60
2022-10-22T18:11:56.020Z,2.25
2022-10-22T18:14:24.704Z,2.47
2022-10-22T18:16:54.535Z,2.92
2022-10-22T18:19:24.560Z,2.47
2022-10-22T18:21:52.751Z,2.60
2022-10-22T18:24:22.149Z,3.05
2022-10-22T18:26:49.990Z,2.20
2022-10-22T18:29:20.318Z,2.33
2022-10-22T18:31:49.412Z,2.75
2022-10-22T18:34:20.252Z,2.33
2022-10-22T18:36:50.977Z,2.25
2022-10-22T18:39:19.472Z,2.80
2022-10-22T18:41:49.725Z,2.42
2022-10-22T18:44:17.936Z,2.28
2022-10-22T18:46:45.793Z,2.28
2022-10-22T18:49:21.737Z,2.38
2022-10-22T18:51:53.025Z,2.90
2022-10-22T18:54:23.872Z,2.78
2022-10-22T18:57:00.565Z,2.53
2022-10-22T18:59:31.442Z,3.13
2022-10-22T19:02:00.396Z,3.42
2022-10-22T19:04:33.405Z,2.60
2022-10-22T19:07:02.057Z,2.75
2022-10-22T19:09:30.237Z,2.80
2022-10-22T19:12:01.283Z,2.38
2022-10-22T19:14:29.619Z,2.53
2022-10-22T19:16:57.538Z,2.72
2022-10-22T19:19:25.673Z,2.83
2022-10-22T19:21:56.441Z,3.15
2022-10-22T19:24:24.297Z,3.08
2022-10-22T19:26:52.288Z,2.85
2022-10-22T19:29:22.096Z,2.70
2022-10-22T19:31:51.663Z,3.10
2022-10-22T19:34:21.115Z,2.92
2022-10-22T19:36:51.639Z,3.30
2022-10-22T19:39:22.145Z,3.22
2022-10-22T19:41:50.583Z,3.58
2022-10-22T19:44:19.711Z,3.45
2022-10-22T19:46:49.077Z,3.20
2022-10-22T19:49:20.390Z,2.88
2022-10-22T19:51:50.317Z,3.78
2022-10-22T19:54:20.536Z,2.72
2022-10-22T19:56:49.537Z,3.22
2022-10-22T19:59:20.530Z,2.97
2022-10-22T20:01:50.357Z,3.03
2022-10-22T20:04:19.531Z,3.20
2022-10-22T20:06:47.967Z,3.10
2022-10-22T20:09:15.960Z,4.18
2022-10-22T20:11:44.616Z,6.03
2022-10-22T20:14:12.754Z,8.00
2022-10-22T20:16:41.859Z,9.60
2022-10-22T20:19:13.493Z,6.15
2022-10-22T20:21:43.221Z,4.20
2022-10-22T20:24:12.206Z,3.50
2022-10-22T20:26:40.372Z,3.63
2022-10-22T20:29:09.424Z,3.85
2022-10-22T20:31:37.198Z,3.13
2022-10-22T20:34:05.458Z,3.55
2022-10-22T20:36:34.664Z,3.50
2022-10-22T20:39:06.107Z,3.47
2022-10-22T20:41:37.891Z,3.97
2022-10-22T20:44:06.453Z,3.35
2022-10-22T20:46:35.188Z,3.03
2022-10-22T20:49:06.691Z,3.50
2022-10-22T20:51:37.704Z,3.90
2022-10-22T20:54:07.268Z,6.53
2022-10-22T20:56:36.175Z,5.20
2022-10-22T20:59:08.442Z,4.70
2022-10-22T21:01:39.427Z,4.97
2022-10-22T21:04:08.306Z,6.88
2022-10-22T21:06:40.334Z,5.50
2022-10-22T21:09:10.041Z,5.50
2022-10-22T21:11:39.694Z,4.90
2022-10-22T21:14:09.636Z,4.78
2022-10-22T21:16:40.819Z,4.82
2022-10-22T21:19:08.882Z,4.68
2022-10-22T21:21:38.328Z,5.28
2022-10-22T21:24:06.863Z,5.10
2022-10-22T21:26:37.838Z,5.53
2022-10-22T21:29:05.934Z,5.90
2022-10-22T21:31:33.972Z,6.35
2022-10-22T21:34:02.275Z,7.05
2022-10-22T21:36:30.663Z,6.15
2022-10-22T21:39:00.152Z,6.45
2022-10-22T21:41:28.194Z,8.60
2022-10-22T21:43:56.838Z,7.88
2022-10-22T21:46:26.913Z,7.38
2022-10-22T21:48:56.094Z,7.35
2022-10-22T21:51:25.513Z,5.90
2022-10-22T21:53:54.748Z,7.10
2022-10-22T21:56:26.959Z,6.72
2022-10-22T21:58:55.267Z,5.15
2022-10-22T22:01:24.081Z,4.93
2022-10-22T22:03:52.722Z,4.30
2022-10-22T22:06:23.217Z,5.13
2022-10-22T22:08:53.524Z,5.03
2022-10-22T22:11:25.092Z,5.10
2022-10-22T22:13:53.657Z,4.03
2022-10-22T22:16:27.294Z,4.65
2022-10-22T22:21:36.707Z,3.88
2022-10-22T22:24:05.140Z,4.25
2022-10-22T22:26:35.628Z,3.95
2022-10-22T22:29:03.760Z,4.40
2022-10-22T22:31:33.357Z,3.70
2022-10-22T22:34:02.162Z,4.13
2022-10-22T22:36:35.074Z,4.20
2022-10-22T22:39:03.292Z,3.45
2022-10-22T22:41:31.427Z,3.20
2022-10-22T22:44:00.640Z,3.38
2022-10-22T22:46:28.552Z,2.80
2022-10-22T22:48:56.988Z,3.27
2022-10-22T22:51:24.924Z,3.35
2022-10-22T22:53:53.190Z,3.20
2022-10-22T22:56:22.830Z,3.13
2022-10-22T22:58:51.473Z,3.28
2022-10-22T23:01:22.887Z,3.37
2022-10-22T23:03:55.423Z,3.25
2022-10-22T23:06:23.431Z,3.23
2022-10-22T23:08:52.419Z,3.15
2022-10-22T23:11:21.801Z,3.17
2022-10-22T23:13:53.619Z,3.33
2022-10-22T23:16:24.969Z,3.80
2022-10-22T23:18:55.390Z,3.37
2022-10-22T23:21:27.048Z,3.30
2022-10-22T23:23:56.347Z,2.90
2022-10-22T23:26:26.356Z,3.33
2022-10-22T23:28:54.265Z,3.30
2022-10-22T23:31:23.636Z,3.90
2022-10-22T23:33:51.509Z,3.43
2022-10-22T23:36:22.891Z,3.27
2022-10-22T23:38:50.873Z,3.40
2022-10-22T23:41:19.391Z,3.57
2022-10-22T23:43:47.414Z,3.20
2022-10-22T23:46:15.927Z,3.50
2022-10-22T23:48:45.472Z,3.60
2022-10-22T23:51:16.411Z,3.43
2022-10-22T23:53:45.421Z,3.93
2022-10-22T23:56:16.507Z,4.40
2022-10-22T23:58:45.695Z,4.13
